Time;durP1;ratioP1;P1;durP2;ratioP2;P2;SDS_P1;SDS_P2;PMS_P1;PMS_P2;Temp;Humidity;BMP_temperature;BMP_pressure;BME280_temperature;BME280_humidity;BME280_pressure;Samples;Min_cycle;Max_cycle;Signal;HPM_P1;HPM_P2
2022/07/24 00:00:17;;;;;;;5.47;3.67;;;;;;;;;;4964245;28;20051;-85
2022/07/24 00:02:43;;;;;;;4.47;2.47;;;;;;;;;;4966575;28;20034;-85
2022/07/24 00:05:09;;;;;;;6.22;3.33;;;18.30;99.90;;;;;;4962898;28;20226;-85
2022/07/24 00:07:35;;;;;;;5.88;3.25;;;17.70;99.90;;;;;;4970649;28;20082;-86
2022/07/24 00:10:03;;;;;;;5.75;3.17;;;17.80;99.90;;;;;;4966204;28;20543;-85
2022/07/24 00:12:29;;;;;;;5.20;3.00;;;;;;;;;;4965601;28;20105;-85
2022/07/24 00:14:55;;;;;;;6.80;3.25;;;;;;;;;;4967792;28;21803;-83
2022/07/24 00:17:21;;;;;;;5.75;3.05;;;;;;;;;;4967406;28;20031;-85
2022/07/24 00:19:46;;;;;;;6.63;3.70;;;;;;;;;;4968297;28;20073;-85
2022/07/24 00:22:12;;;;;;;6.40;3.72;;;;;;;;;;4959007;28;20086;-82
2022/07/24 00:24:38;;;;;;;8.15;4.25;;;17.30;99.90;;;;;;4966784;28;20031;-84
2022/07/24 00:27:04;;;;;;;4.80;3.10;;;;;;;;;;4965455;28;20033;-84
2022/07/24 00:29:30;;;;;;;8.25;4.05;;;;;;;;;;4970665;28;20026;-85
2022/07/24 00:31:56;;;;;;;6.25;3.35;;;;;;;;;;4966022;28;21368;-87
2022/07/24 00:34:22;;;;;;;5.28;3.28;;;;;;;;;;4969969;28;20031;-85
2022/07/24 00:36:48;;;;;;;6.80;3.72;;;;;;;;;;4970072;28;20552;-84
2022/07/24 00:39:14;;;;;;;3.88;2.67;;;;;;;;;;4965993;28;20034;-85
2022/07/24 00:41:40;;;;;;;6.38;3.35;;;;;;;;;;4968985;28;20463;-85
2022/07/24 00:44:12;;;;;;;7.55;3.17;;;17.10;99.90;;;;;;4964139;28;20030;-85
2022/07/24 00:46:39;;;;;;;6.38;2.92;;;17.20;99.90;;;;;;4969306;28;20031;-87
2022/07/24 00:49:08;;;;;;;5.90;2.97;;;17.20;99.90;;;;;;4960657;28;20031;-86
2022/07/24 00:51:37;;;;;;;5.00;2.88;;;16.80;99.90;;;;;;4964503;28;20050;-86
2022/07/24 00:54:04;;;;;;;6.05;3.60;;;;;;;;;;4954094;28;20038;-85
2022/07/24 00:56:30;;;;;;;8.23;3.72;;;;;;;;;;4960804;28;20034;-85
2022/07/24 00:58:56;;;;;;;6.60;2.90;;;;;;;;;;4969745;28;20053;-86
2022/07/24 01:01:23;;;;;;;5.05;2.70;;;;;;;;;;4967158;28;20415;-84
2022/07/24 01:03:49;;;;;;;3.67;2.63;;;;;;;;;;4965049;28;20030;-84
2022/07/24 01:06:15;;;;;;;4.63;3.20;;;;;;;;;;4967169;28;20030;-85
2022/07/24 01:08:43;;;;;;;6.57;4.05;;;;;;;;;;4962949;28;20098;-86
2022/07/24 01:11:09;;;;;;;5.75;2.67;;;16.40;99.90;;;;;;4963998;28;20030;-85
2022/07/24 01:13:36;;;;;;;4.97;3.17;;;;;;;;;;4960641;28;20019;-84
2022/07/24 01:16:02;;;;;;;6.80;3.30;;;16.90;99.90;;;;;;4962687;28;20030;-86
2022/07/24 01:18:27;;;;;;;5.07;2.85;;;;;;;;;;4960528;28;20034;-86
2022/07/24 01:20:55;;;;;;;5.70;3.10;;;16.80;99.90;;;;;;4966657;28;20047;-85
2022/07/24 01:23:21;;;;;;;5.03;3.15;;;;;;;;;;4959697;28;20606;-86
2022/07/24 01:25:46;;;;;;;5.68;3.60;;;17.10;99.90;;;;;;4962002;28;20090;-85
2022/07/24 01:28:12;;;;;;;10.77;4.05;;;16.70;99.90;;;;;;4959468;28;20118;-86
2022/07/24 01:30:38;;;;;;;4.95;3.03;;;;;;;;;;4961364;28;20035;-85
2022/07/24 01:33:04;;;;;;;7.20;3.47;;;;;;;;;;4962784;28;20039;-85
2022/07/24 01:35:30;;;;;;;7.13;4.30;;;;;;;;;;4968428;28;20031;-85
2022/07/24 01:37:56;;;;;;;6.15;2.67;;;;;;;;;;4968556;28;20035;-84
2022/07/24 01:40:22;;;;;;;8.43;4.15;;;;;;;;;;4966835;28;20039;-83
2022/07/24 01:42:48;;;;;;;6.55;3.70;;;;;;;;;;4967268;28;20117;-84
2022/07/24 01:45:15;;;;;;;5.85;3.17;;;;;;;;;;4962021;28;20070;-87
2022/07/24 01:47:43;;;;;;;6.28;3.58;;;;;;;;;;4965447;28;20098;-87
2022/07/24 01:50:09;;;;;;;8.23;4.32;;;;;;;;;;4970327;28;20053;-86
2022/07/24 01:52:35;;;;;;;4.20;3.40;;;;;;;;;;4966514;28;20027;-85
2022/07/24 01:55:01;;;;;;;6.38;3.58;;;;;;;;;;4965522;28;20158;-85
2022/07/24 01:57:26;;;;;;;6.18;3.95;;;16.80;99.90;;;;;;4956930;28;20026;-84
2022/07/24 01:59:52;;;;;;;8.55;4.25;;;;;;;;;;4965248;28;20034;-85
2022/07/24 02:02:18;;;;;;;8.02;3.70;;;;;;;;;;4962494;28;20475;-85
2022/07/24 02:04:44;;;;;;;5.78;3.47;;;;;;;;;;4967500;28;20026;-85
2022/07/24 02:07:10;;;;;;;6.78;3.92;;;16.90;99.90;;;;;;4965297;28;20031;-84
2022/07/24 02:09:35;;;;;;;5.45;3.13;;;;;;;;;;4970549;28;20042;-85
2022/07/24 02:12:01;;;;;;;5.85;4.18;;;;;;;;;;4969882;28;20023;-85
2022/07/24 02:14:27;;;;;;;6.18;4.05;;;;;;;;;;4963145;28;20037;-86
2022/07/24 02:16:53;;;;;;;4.60;2.95;;;;;;;;;;4971774;28;20065;-85
2022/07/24 02:19:19;;;;;;;6.57;3.50;;;;;;;;;;4972095;28;20026;-86
2022/07/24 02:21:45;;;;;;;8.60;4.03;;;;;;;;;;4970307;28;20049;-86
2022/07/24 02:24:11;;;;;;;6.43;3.53;;;;;;;;;;4962761;28;20027;-85
2022/07/24 02:26:37;;;;;;;7.35;3.65;;;;;;;;;;4968367;28;20109;-85
2022/07/24 02:29:03;;;;;;;4.50;3.03;;;;;;;;;;4968896;28;20035;-85
2022/07/24 02:31:29;;;;;;;5.30;2.72;;;;;;;;;;4965865;28;20031;-87
2022/07/24 02:33:55;;;;;;;6.22;3.90;;;;;;;;;;4970005;28;20038;-86
2022/07/24 02:36:21;;;;;;;9.75;3.53;;;;;;;;;;4970957;28;20027;-84
2022/07/24 02:38:47;;;;;;;9.27;3.33;;;;;;;;;;4967467;28;20054;-84
2022/07/24 02:41:13;;;;;;;5.57;3.60;;;;;;;;;;4960315;28;20039;-86
2022/07/24 02:43:39;;;;;;;6.60;3.42;;;;;;;;;;4967998;28;20019;-87
2022/07/24 02:46:05;;;;;;;5.68;3.53;;;;;;;;;;4961775;28;20045;-87
2022/07/24 02:48:31;;;;;;;6.53;3.72;;;;;;;;;;4969336;28;20034;-86
2022/07/24 02:50:57;;;;;;;7.97;3.83;;;16.60;99.90;;;;;;4972945;28;20022;-86
2022/07/24 02:53:23;;;;;;;4.97;3.10;;;;;;;;;;4968727;28;20042;-86
2022/07/24 02:55:49;;;;;;;10.52;3.00;;;16.40;99.90;;;;;;4972869;28;20031;-83
2022/07/24 02:58:15;;;;;;;7.68;4.53;;;;;;;;;;4961392;28;20063;-87
2022/07/24 03:00:41;;;;;;;9.07;4.30;;;;;;;;;;4967261;28;20045;-85
2022/07/24 03:03:06;;;;;;;5.72;3.72;;;;;;;;;;4969194;28;20129;-85
2022/07/24 03:05:32;;;;;;;6.50;3.72;;;;;;;;;;4969817;28;20043;-85
2022/07/24 03:07:58;;;;;;;6.95;3.58;;;;;;;;;;4970653;28;20122;-86
2022/07/24 03:10:24;;;;;;;5.85;3.25;;;;;;;;;;4968298;28;20407;-85
2022/07/24 03:12:50;;;;;;;7.82;4.22;;;;;;;;;;4964751;28;20023;-86
2022/07/24 03:15:17;;;;;;;6.65;4.05;;;;;;;;;;4966584;28;20035;-85
2022/07/24 03:17:55;;;;;;;6.22;3.03;;;15.30;99.90;;;;;;4969426;28;20041;-86
2022/07/24 03:20:22;;;;;;;5.07;3.30;;;15.30;99.90;;;;;;4969667;28;20083;-84
2022/07/24 03:22:48;;;;;;;7.38;3.75;;;;;;;;;;4962014;28;20125;-85
2022/07/24 03:25:14;;;;;;;5.10;3.28;;;;;;;;;;4969854;28;20062;-86
2022/07/24 03:27:40;;;;;;;5.90;3.35;;;;;;;;;;4969919;28;20018;-84
2022/07/24 03:30:08;;;;;;;10.30;4.15;;;17.40;99.90;;;;;;4964767;28;20029;-88
2022/07/24 03:32:34;;;;;;;7.03;3.58;;;16.40;99.90;;;;;;4965521;28;20027;-86
2022/07/24 03:35:00;;;;;;;6.78;3.53;;;;;;;;;;4968642;28;20026;-86
2022/07/24 03:37:26;;;;;;;7.57;3.63;;;;;;;;;;4965984;28;20030;-86
2022/07/24 03:39:51;;;;;;;6.53;3.80;;;;;;;;;;4969315;28;20379;-88
2022/07/24 03:42:17;;;;;;;6.35;4.13;;;;;;;;;;4965691;28;20521;-88
2022/07/24 03:44:43;;;;;;;8.20;4.45;;;;;;;;;;4970164;28;20023;-86
2022/07/24 03:47:09;;;;;;;8.00;3.92;;;;;;;;;;4967047;28;20054;-86
2022/07/24 03:49:36;;;;;;;5.25;3.20;;;;;;;;;;4969118;28;20038;-84
2022/07/24 03:52:02;;;;;;;5.32;3.42;;;;;;;;;;4967365;28;20026;-86
2022/07/24 03:54:27;;;;;;;7.32;4.25;;;;;;;;;;4970082;28;20089;-86
2022/07/24 03:56:53;;;;;;;6.43;3.50;;;;;;;;;;4970793;28;20038;-84
2022/07/24 03:59:19;;;;;;;4.55;2.88;;;;;;;;;;4970434;28;20042;-86
2022/07/24 04:01:45;;;;;;;6.63;4.07;;;;;;;;;;4966824;28;20070;-85
2022/07/24 04:04:11;;;;;;;3.55;2.30;;;;;;;;;;4968239;28;20456;-86
2022/07/24 04:06:37;;;;;;;4.85;2.47;;;;;;;;;;4964156;28;20061;-86
2022/07/24 04:09:04;;;;;;;4.00;2.28;;;;;;;;;;4964419;28;20027;-85
2022/07/24 04:11:31;;;;;;;8.60;2.63;;;;;;;;;;4955888;28;20035;-89
2022/07/24 04:13:57;;;;;;;5.97;3.33;;;;;;;;;;4959422;28;20026;-86
2022/07/24 04:16:23;;;;;;;6.38;2.63;;;;;;;;;;4959646;28;20039;-85
2022/07/24 04:18:49;;;;;;;4.35;2.65;;;;;;;;;;4957727;28;20027;-86
2022/07/24 04:21:15;;;;;;;5.57;3.08;;;;;;;;;;4954801;28;20046;-86
2022/07/24 04:23:41;;;;;;;5.25;2.58;;;;;;;;;;4951787;28;20046;-85
2022/07/24 04:26:07;;;;;;;4.95;2.75;;;;;;;;;;4959436;28;20027;-85
2022/07/24 04:28:33;;;;;;;7.10;2.88;;;;;;;;;;4963579;28;20045;-85
2022/07/24 04:30:59;;;;;;;5.40;3.67;;;;;;;;;;4964285;28;20046;-85
2022/07/24 04:33:25;;;;;;;5.70;3.38;;;;;;;;;;4960502;28;20281;-86
2022/07/24 04:35:51;;;;;;;6.50;3.80;;;;;;;;;;4963650;28;20708;-84
2022/07/24 04:38:17;;;;;;;9.35;3.00;;;;;;;;;;4957108;28;20035;-85
2022/07/24 04:40:43;;;;;;;7.95;4.05;;;;;;;;;;4955718;28;20411;-86
2022/07/24 04:43:09;;;;;;;4.78;3.30;;;;;;;;;;4958322;28;20042;-85
2022/07/24 04:45:34;;;;;;;5.47;3.22;;;16.60;99.90;;;;;;4957972;28;20616;-86
2022/07/24 04:48:00;;;;;;;6.00;3.53;;;;;;;;;;4949516;28;20038;-86
2022/07/24 04:50:26;;;;;;;6.13;3.60;;;;;;;;;;4956857;28;20031;-87
2022/07/24 04:52:52;;;;;;;8.30;4.07;;;;;;;;;;4958360;28;20894;-85
2022/07/24 04:55:18;;;;;;;5.38;3.15;;;;;;;;;;4963486;28;20038;-85
2022/07/24 04:57:44;;;;;;;5.10;3.28;;;;;;;;;;4957704;28;20429;-86
2022/07/24 05:00:12;;;;;;;6.45;3.42;;;19.20;99.90;;;;;;4960353;28;20143;-85
2022/07/24 05:02:38;;;;;;;5.78;3.10;;;;;;;;;;4960367;28;20067;-84
2022/07/24 05:05:05;;;;;;;6.18;3.38;;;16.70;99.90;;;;;;4964202;28;20064;-85
2022/07/24 05:07:31;;;;;;;5.93;3.22;;;;;;;;;;4965942;28;20780;-86
2022/07/24 05:09:57;;;;;;;5.30;3.50;;;16.60;99.90;;;;;;4961378;28;20026;-86
2022/07/24 05:12:23;;;;;;;9.68;3.88;;;;;;;;;;4959955;28;20470;-85
2022/07/24 05:14:49;;;;;;;6.35;3.35;;;;;;;;;;4959689;28;20030;-85
2022/07/24 05:17:15;;;;;;;5.32;3.35;;;;;;;;;;4966569;28;20053;-84
2022/07/24 05:19:41;;;;;;;6.78;3.15;;;;;;;;;;4960502;28;20026;-83
2022/07/24 05:22:07;;;;;;;6.72;3.80;;;;;;;;;;4962575;28;20562;-84
2022/07/24 05:24:33;;;;;;;7.18;3.03;;;;;;;;;;4966386;28;20441;-84
2022/07/24 05:26:59;;;;;;;5.03;2.67;;;;;;;;;;4953986;28;20066;-85
2022/07/24 05:29:25;;;;;;;6.95;4.07;;;;;;;;;;4962587;28;21251;-84
2022/07/24 05:31:53;;;;;;;7.18;4.03;;;18.10;99.90;;;;;;4965394;28;20065;-84
2022/07/24 05:34:19;;;;;;;5.45;3.60;;;;;;;;;;4964358;28;20031;-85
2022/07/24 05:36:45;;;;;;;6.28;3.80;;;;;;;;;;4962280;28;20046;-84
2022/07/24 05:39:11;;;;;;;5.43;3.70;;;;;;;;;;4968349;28;20034;-84
2022/07/24 05:41:37;;;;;;;6.25;3.65;;;;;;;;;;4970478;28;20038;-84
2022/07/24 05:44:03;;;;;;;6.38;3.83;;;;;;;;;;4970761;28;20038;-84
2022/07/24 05:46:29;;;;;;;8.43;3.70;;;;;;;;;;4968396;28;20034;-84
2022/07/24 05:48:56;;;;;;;10.68;3.40;;;;;;;;;;4967562;28;20501;-84
2022/07/24 05:51:21;;;;;;;5.78;3.80;;;;;;;;;;4966274;28;20039;-84
2022/07/24 05:53:47;;;;;;;6.50;3.50;;;;;;;;;;4965912;28;20474;-84
2022/07/24 05:56:13;;;;;;;8.13;3.63;;;;;;;;;;4966386;28;20026;-83
2022/07/24 05:58:39;;;;;;;5.60;3.17;;;;;;;;;;4969322;28;20041;-84
2022/07/24 06:01:05;;;;;;;6.03;3.78;;;;;;;;;;4975557;28;20614;-84
2022/07/24 06:03:31;;;;;;;4.72;3.38;;;;;;;;;;4970881;28;20050;-83
2022/07/24 06:05:57;;;;;;;6.03;3.42;;;;;;;;;;4973914;28;20058;-83
2022/07/24 06:08:23;;;;;;;5.38;3.35;;;;;;;;;;4966960;28;20041;-82
2022/07/24 06:10:49;;;;;;;6.35;3.20;;;;;;;;;;4972145;28;20034;-82
2022/07/24 06:13:15;;;;;;;6.50;3.53;;;;;;;;;;4968647;28;20527;-83
2022/07/24 06:15:41;;;;;;;6.35;3.20;;;;;;;;;;4972354;28;20058;-81
2022/07/24 06:18:07;;;;;;;6.72;3.58;;;;;;;;;;4968258;28;20090;-81
2022/07/24 06:20:33;;;;;;;6.20;3.22;;;;;;;;;;4963277;28;20054;-81
2022/07/24 06:22:59;;;;;;;5.85;2.95;;;;;;;;;;4973502;28;20073;-82
2022/07/24 06:25:25;;;;;;;4.53;2.63;;;19.70;99.90;;;;;;4977463;28;20635;-80
2022/07/24 06:27:53;;;;;;;7.25;3.28;;;;;;;;;;4969918;28;20483;-82
2022/07/24 06:30:25;;;;;;;5.35;3.22;;;20.00;99.90;;;;;;4960197;28;20148;-82
2022/07/24 06:32:54;;;;;;;6.03;2.60;;;20.00;99.90;;;;;;4962503;28;20038;-81
2022/07/24 06:35:20;;;;;;;7.38;3.47;;;;;;;;;;4967731;28;20499;-83
2022/07/24 06:37:46;;;;;;;6.03;3.05;;;;;;;;;;4953327;28;20034;-83
2022/07/24 06:40:12;;;;;;;4.95;2.47;;;21.40;99.90;;;;;;4928446;28;20117;-83
2022/07/24 06:42:38;;;;;;;5.60;2.80;;;;;;;;;;4952891;28;20035;-82
2022/07/24 06:45:04;;;;;;;6.90;2.58;;;;;;;;;;4964676;28;20116;-82
2022/07/24 06:47:30;;;;;;;5.70;3.28;;;;;;;;;;4968278;28;20065;-82
2022/07/24 06:49:56;;;;;;;6.82;2.75;;;;;;;;;;4966415;28;20030;-81
2022/07/24 06:52:22;;;;;;;4.05;2.42;;;;;;;;;;4957261;28;20114;-81
2022/07/24 06:54:49;;;;;;;3.63;2.75;;;25.70;98.20;;;;;;4958241;28;20035;-84
2022/07/24 06:57:16;;;;;;;4.70;2.72;;;;;;;;;;4958428;28;20129;-83
2022/07/24 06:59:42;;;;;;;3.95;2.10;;;;;;;;;;4967626;28;20303;-81
2022/07/24 07:02:08;;;;;;;3.08;1.85;;;29.30;95.50;;;;;;4961152;28;20063;-82
2022/07/24 07:04:34;;;;;;;3.83;2.25;;;;;;;;;;4964905;28;20462;-80
2022/07/24 07:06:59;;;;;;;8.02;2.50;;;31.60;74.20;;;;;;4961257;28;20039;-82
2022/07/24 07:09:25;;;;;;;2.92;2.15;;;;;;;;;;4951074;28;20094;-81
2022/07/24 07:11:51;;;;;;;4.10;2.70;;;;;;;;;;4961860;28;20499;-81
2022/07/24 07:14:17;;;;;;;3.38;2.20;;;;;;;;;;4958728;28;20572;-83
2022/07/24 07:16:43;;;;;;;2.75;1.73;;;;;;;;;;4960090;28;20031;-83
2022/07/24 07:19:09;;;;;;;4.40;2.30;;;33.30;65.40;;;;;;4946209;28;20262;-84
2022/07/24 07:21:36;;;;;;;4.57;2.85;;;33.90;57.10;;;;;;4950260;28;20050;-84
2022/07/24 07:24:02;;;;;;;3.90;2.17;;;;;;;;;;4953715;28;20492;-85
2022/07/24 07:26:28;;;;;;;4.53;2.45;;;31.50;68.70;;;;;;4958032;28;20041;-86
2022/07/24 07:28:53;;;;;;;5.28;3.10;;;;;;;;;;4950231;28;20041;-84
2022/07/24 07:31:19;;;;;;;3.85;2.80;;;;;;;;;;4951002;28;20035;-84
2022/07/24 07:33:45;;;;;;;3.85;2.63;;;;;;;;;;4961642;28;20030;-84
2022/07/24 07:36:11;;;;;;;5.70;3.47;;;;;;;;;;4968079;28;20034;-84
2022/07/24 07:38:38;;;;;;;4.45;2.42;;;;;;;;;;4971422;28;20056;-83
2022/07/24 07:41:04;;;;;;;4.05;2.45;;;29.60;67.50;;;;;;4969212;28;20491;-84
2022/07/24 07:43:30;;;;;;;6.63;3.40;;;29.50;69.20;;;;;;4966988;28;20058;-84
2022/07/24 07:45:56;;;;;;;3.63;2.63;;;;;;;;;;4973640;28;20444;-83
2022/07/24 07:48:22;;;;;;;4.97;2.90;;;;;;;;;;4961933;28;20507;-83
2022/07/24 07:50:48;;;;;;;4.10;2.65;;;;;;;;;;4967540;28;20961;-83
2022/07/24 07:53:14;;;;;;;4.32;2.88;;;;;;;;;;4971811;28;20027;-84
2022/07/24 07:55:40;;;;;;;7.07;3.63;;;;;;;;;;4968525;28;20023;-83
2022/07/24 07:58:05;;;;;;;4.25;2.55;;;28.80;78.30;;;;;;4965076;28;20043;-83
2022/07/24 08:00:32;;;;;;;4.90;3.55;;;28.80;74.40;;;;;;4981981;28;20466;-83
2022/07/24 08:02:58;;;;;;;6.15;3.25;;;;;;;;;;4984748;28;20033;-83
2022/07/24 08:05:24;;;;;;;7.68;4.00;;;;;;;;;;4985137;28;20030;-83
2022/07/24 08:07:50;;;;;;;6.05;3.30;;;;;;;;;;4967725;28;20030;-82
2022/07/24 08:10:16;;;;;;;4.97;3.17;;;;;;;;;;4960904;28;20136;-84
2022/07/24 08:12:42;;;;;;;4.38;3.45;;;;;;;;;;4968958;28;20033;-85
2022/07/24 08:15:08;;;;;;;6.40;3.45;;;29.60;76.70;;;;;;4961269;28;20101;-84
2022/07/24 08:17:34;;;;;;;5.65;3.70;;;;;;;;;;4973107;28;20031;-84
2022/07/24 08:20:00;;;;;;;4.97;3.10;;;27.70;85.50;;;;;;4970236;28;20034;-84
2022/07/24 08:22:28;;;;;;;5.32;3.00;;;28.30;72.90;;;;;;4962410;28;20573;-85
2022/07/24 08:24:54;;;;;;;5.47;3.25;;;;;;;;;;4959111;28;22842;-86
2022/07/24 08:27:20;;;;;;;6.35;3.45;;;;;;;;;;4962401;28;20059;-84
2022/07/24 08:29:46;;;;;;;5.93;3.80;;;;;;;;;;4959333;28;20023;-88
2022/07/24 08:32:12;;;;;;;4.57;3.30;;;;;;;;;;4961673;28;20122;-86
2022/07/24 08:34:38;;;;;;;5.43;3.10;;;;;;;;;;4969962;28;20031;-87
2022/07/24 08:37:04;;;;;;;5.07;3.45;;;;;;;;;;4972431;28;20037;-85
2022/07/24 08:39:30;;;;;;;3.58;2.85;;;;;;;;;;4969096;28;20537;-86
2022/07/24 08:41:56;;;;;;;5.60;3.50;;;;;;;;;;4967300;28;20047;-89
2022/07/24 08:44:22;;;;;;;4.00;3.05;;;;;;;;;;4966627;28;20030;-84
2022/07/24 08:46:52;;;;;;;4.30;2.83;;;32.30;64.70;;;;;;4967370;28;20038;-85
2022/07/24 08:49:19;;;;;;;4.65;3.15;;;34.00;56.60;;;;;;4971007;28;20026;-87
2022/07/24 08:51:46;;;;;;;5.05;3.72;;;35.40;53.60;;;;;;4967239;28;20026;-86
2022/07/24 08:54:11;;;;;;;5.82;3.55;;;;;;;;;;4970230;28;20513;-88
2022/07/24 08:56:41;;;;;;;4.13;2.85;;;38.50;56.80;;;;;;4970481;28;20113;-87
2022/07/24 08:59:18;;;;;;;6.82;3.97;;;38.20;46.80;;;;;;4970694;28;20069;-86
2022/07/24 09:01:46;;;;;;;3.90;2.88;;;38.60;44.60;;;;;;4952267;28;20047;-87
2022/07/24 09:04:41;;;;;;;5.13;2.88;;;39.30;44.00;;;;;;4967124;28;20117;-87
2022/07/24 09:07:12;;;;;;;5.82;3.35;;;40.20;42.80;;;;;;4959902;28;20131;-87
2022/07/24 09:09:39;;;;;;;3.83;2.97;;;40.70;41.50;;;;;;4962861;28;20034;-85
2022/07/24 09:12:13;;;;;;;4.47;2.83;;;41.10;39.80;;;;;;4952241;28;20035;-88
2022/07/24 09:14:40;;;;;;;7.18;2.90;;;40.90;47.00;;;;;;4958346;28;20062;-87
2022/07/24 09:17:18;;;;;;;4.35;3.13;;;41.30;39.40;;;;;;4965007;28;20049;-87
2022/07/24 09:19:57;;;;;;;4.63;3.45;;;41.80;36.90;;;;;;4964736;28;20035;-87
2022/07/24 09:22:39;;;;;;;5.90;2.87;;;42.30;36.30;;;;;;4960015;28;20054;-88
2022/07/24 09:25:07;;;;;;;4.88;2.83;;;;;;;;;;4964818;28;20106;-85
2022/07/24 09:27:34;;;;;;;3.95;2.65;;;41.20;37.00;;;;;;4973034;28;20590;-85
2022/07/24 09:30:01;;;;;;;4.57;3.00;;;;;;;;;;4970006;28;20035;-85
2022/07/24 09:32:27;;;;;;;3.60;2.40;;;;;;;;;;4963840;28;20601;-87
2022/07/24 09:34:54;;;;;;;4.15;2.78;;;37.20;41.50;;;;;;4966948;28;20030;-86
2022/07/24 09:37:20;;;;;;;5.32;3.15;;;;;;;;;;4968182;28;20126;-87
2022/07/24 09:39:46;;;;;;;4.95;2.85;;;35.40;50.60;;;;;;4966774;28;20042;-85
2022/07/24 09:42:13;;;;;;;4.38;2.50;;;34.70;53.40;;;;;;4964888;28;20102;-87
2022/07/24 09:44:39;;;;;;;6.38;2.70;;;34.50;47.30;;;;;;4967175;28;20414;-84
2022/07/24 09:47:07;;;;;;;4.40;2.90;;;33.20;49.10;;;;;;4968536;28;20062;-87
2022/07/24 09:49:34;;;;;;;4.18;2.90;;;32.90;49.20;;;;;;4967403;28;20027;-86
2022/07/24 09:52:10;;;;;;;4.95;3.13;;;33.10;56.90;;;;;;4968041;28;20125;-86
2022/07/24 09:54:38;;;;;;;5.03;2.67;;;32.30;50.90;;;;;;4965214;28;20563;-88
2022/07/24 09:57:18;;;;;;;4.43;2.13;;;32.20;47.80;;;;;;4970810;28;20081;-86
2022/07/24 09:59:53;;;;;;;5.63;2.08;;;31.70;49.20;;;;;;4972700;28;20054;-88
2022/07/24 10:02:21;;;;;;;5.65;2.28;;;31.70;50.00;;;;;;4972841;28;20074;-85
2022/07/24 10:04:48;;;;;;;5.53;2.92;;;31.80;51.40;;;;;;4963854;28;20061;-87
2022/07/24 10:07:17;;;;;;;4.32;3.00;;;31.70;50.10;;;;;;4966033;28;20034;-88
2022/07/24 10:09:45;;;;;;;5.45;2.53;;;31.70;49.80;;;;;;4959626;28;20058;-86
2022/07/24 10:12:21;;;;;;;4.55;2.83;;;31.70;50.40;;;;;;4968279;28;20111;-87
2022/07/24 10:14:49;;;;;;;6.38;2.95;;;31.60;50.60;;;;;;4965559;28;20038;-87
2022/07/24 10:17:15;;;;;;;3.40;1.73;;;;;;;;;;4966536;28;20278;-86
2022/07/24 10:19:47;;;;;;;5.28;3.00;;;31.00;49.60;;;;;;4969349;28;20037;-88
2022/07/24 10:22:16;;;;;;;4.38;2.63;;;31.90;50.00;;;;;;4963004;28;20039;-85
2022/07/24 10:25:07;;;;;;;4.03;2.70;;;31.70;50.50;;;;;;4963203;28;20031;-87
2022/07/24 10:27:35;;;;;;;4.55;2.50;;;31.10;50.80;;;;;;4971956;28;20039;-87
2022/07/24 10:30:05;;;;;;;3.92;2.92;;;30.80;52.10;;;;;;4972846;28;20030;-88
2022/07/24 10:32:32;;;;;;;7.55;3.50;;;30.30;53.00;;;;;;4970236;28;20086;-86
2022/07/24 10:35:04;;;;;;;6.15;2.97;;;29.60;54.10;;;;;;4974053;28;20031;-88
2022/07/24 10:37:55;;;;;;;4.85;2.80;;;29.70;54.30;;;;;;4968273;28;20026;-86
2022/07/24 10:40:27;;;;;;;4.18;2.70;;;29.00;53.60;;;;;;4974701;28;20043;-87
2022/07/24 10:43:08;;;;;;;4.20;2.53;;;;;;;;;;4974305;28;20030;-87
2022/07/24 10:45:39;;;;;;;4.82;3.13;;;30.20;52.80;;;;;;4968817;28;20209;-87
2022/07/24 10:48:21;;;;;;;4.88;2.80;;;;;;;;;;4971335;28;20050;-88
2022/07/24 10:50:58;;;;;;;4.30;2.60;;;30.40;62.90;;;;;;4976470;28;20038;-87
2022/07/24 10:53:24;;;;;;;3.75;2.72;;;;;;;;;;4972118;28;20069;-86
2022/07/24 10:55:51;;;;;;;8.20;2.67;;;;;;;;;;4972469;28;20163;-85
2022/07/24 10:58:17;;;;;;;3.85;2.33;;;;;;;;;;4975456;28;20039;-86
2022/07/24 11:00:48;;;;;;;3.72;2.50;;;30.10;51.20;;;;;;4977992;28;20038;-87
2022/07/24 11:03:26;;;;;;;4.90;2.75;;;31.50;55.50;;;;;;4971761;28;20031;-86
2022/07/24 11:06:09;;;;;;;3.67;2.17;;;;;;;;;;4969969;28;20398;-87
2022/07/24 11:08:48;;;;;;;5.10;2.97;;;30.80;52.40;;;;;;4971902;28;20685;-87
2022/07/24 11:11:20;;;;;;;3.95;2.50;;;31.00;51.60;;;;;;4971430;28;20046;-87
2022/07/24 11:14:01;;;;;;;3.10;2.30;;;31.20;50.10;;;;;;4974924;28;20045;-86
2022/07/24 11:16:32;;;;;;;4.13;2.28;;;31.90;49.70;;;;;;4970172;28;20106;-86
2022/07/24 11:19:01;;;;;;;2.90;1.90;;;31.00;50.30;;;;;;4971798;28;20406;-88
2022/07/24 11:22:01;;;;;;;9.98;3.13;;;30.90;51.30;;;;;;4968874;28;20031;-87
2022/07/24 11:24:30;;;;;;;3.92;2.67;;;;;;;;;;4968707;28;20026;-89
2022/07/24 11:26:56;;;;;;;4.95;2.60;;;31.20;51.50;;;;;;4977017;28;20101;-86
2022/07/24 11:29:23;;;;;;;2.88;1.75;;;;;;;;;;4970852;28;20043;-85
2022/07/24 11:31:53;;;;;;;4.40;2.63;;;31.30;53.30;;;;;;4971996;28;20143;-88
2022/07/24 11:34:19;;;;;;;6.45;2.55;;;;;;;;;;4971350;28;20372;-86
2022/07/24 11:36:49;;;;;;;3.47;2.45;;;31.00;51.50;;;;;;4970465;28;20058;-88
2022/07/24 11:39:15;;;;;;;5.22;2.13;;;;;;;;;;4968572;28;20074;-87
2022/07/24 11:41:55;;;;;;;3.78;2.58;;;30.60;51.20;;;;;;4965336;28;20050;-87
2022/07/24 11:44:32;;;;;;;6.47;2.70;;;30.60;52.20;;;;;;4971302;28;20399;-87
2022/07/24 11:47:06;;;;;;;4.05;2.40;;;30.70;52.90;;;;;;4968876;28;20031;-87
2022/07/24 11:49:44;;;;;;;3.60;2.15;;;31.10;51.10;;;;;;4965961;28;20035;-86
2022/07/24 11:52:21;;;;;;;4.00;2.63;;;30.80;50.60;;;;;;4968603;28;20062;-86
2022/07/24 11:54:49;;;;;;;2.70;2.05;;;31.10;51.20;;;;;;4962948;28;20031;-87
2022/07/24 11:57:21;;;;;;;3.78;2.85;;;30.60;51.50;;;;;;4962234;28;20038;-84
2022/07/24 11:59:49;;;;;;;3.30;2.17;;;30.60;51.40;;;;;;4966966;28;20031;-86
2022/07/24 12:02:15;;;;;;;3.53;2.22;;;;;;;;;;4971702;28;20039;-85
2022/07/24 12:04:42;;;;;;;3.25;2.20;;;30.80;50.70;;;;;;4972530;28;20027;-87
2022/07/24 12:07:11;;;;;;;4.55;1.92;;;31.30;49.70;;;;;;4967779;28;20035;-85
2022/07/24 12:09:45;;;;;;;4.20;2.35;;;31.00;52.30;;;;;;4960553;28;20094;-86
2022/07/24 12:12:24;;;;;;;3.85;2.45;;;31.00;46.10;;;;;;4950764;28;21706;-86
2022/07/24 12:15:11;;;;;;;3.00;1.98;;;31.30;47.30;;;;;;4955505;28;20039;-88
2022/07/24 12:17:57;;;;;;;5.65;2.30;;;31.00;53.10;;;;;;4964025;28;20033;-88
2022/07/24 12:20:35;;;;;;;3.20;1.95;;;31.70;47.80;;;;;;4965943;28;20519;-86
2022/07/24 12:23:04;;;;;;;3.63;2.08;;;31.80;49.20;;;;;;4960303;28;20042;-88
2022/07/24 12:25:30;;;;;;;2.80;1.80;;;;;;;;;;4965557;28;20038;-87
2022/07/24 12:28:12;;;;;;;3.45;2.30;;;32.10;47.50;;;;;;4960177;28;20030;-87
2022/07/24 12:30:41;;;;;;;2.95;2.05;;;32.00;47.30;;;;;;4962277;28;20027;-88
2022/07/24 12:33:23;;;;;;;2.20;1.48;;;32.10;47.20;;;;;;4959994;28;20558;-87
2022/07/24 12:35:59;;;;;;;3.67;2.43;;;32.60;54.10;;;;;;4966148;28;20031;-87
2022/07/24 12:38:28;;;;;;;3.17;2.05;;;;;;;;;;4975064;28;20110;-86
2022/07/24 12:41:04;;;;;;;5.43;2.22;;;31.90;46.40;;;;;;4979472;28;20081;-87
2022/07/24 12:43:30;;;;;;;2.88;2.25;;;;;;;;;;4974207;28;20035;-87
2022/07/24 12:46:06;;;;;;;3.28;1.95;;;29.00;47.40;;;;;;4976155;28;20054;-87
2022/07/24 12:48:32;;;;;;;5.85;2.45;;;;;;;;;;4972569;28;20034;-88
2022/07/24 12:51:10;;;;;;;3.88;2.17;;;31.20;49.10;;;;;;4975581;28;20534;-88
2022/07/24 12:53:38;;;;;;;4.30;2.33;;;31.50;50.70;;;;;;4972976;28;20030;-87
2022/07/24 12:56:04;;;;;;;5.90;1.95;;;;;;;;;;4972672;28;21035;-88
2022/07/24 12:58:30;;;;;;;5.90;2.75;;;;;;;;;;4981859;28;20019;-87
2022/07/24 13:00:57;;;;;;;3.28;1.88;;;31.40;47.90;;;;;;4983212;28;20073;-86
2022/07/24 13:03:26;;;;;;;5.40;2.28;;;31.50;48.50;;;;;;4966715;28;20023;-86
2022/07/24 13:05:55;;;;;;;4.45;2.22;;;31.40;48.60;;;;;;4971805;28;20027;-87
2022/07/24 13:08:21;;;;;;;3.03;1.88;;;;;;;;;;4971442;28;20041;-86
2022/07/24 13:10:47;;;;;;;4.03;2.53;;;;;;;;;;4973686;28;20466;-85
2022/07/24 13:13:13;;;;;;;3.85;2.25;;;;;;;;;;4969603;28;20038;-87
2022/07/24 13:15:39;;;;;;;3.13;2.33;;;;;;;;;;4967784;28;20134;-86
2022/07/24 13:18:06;;;;;;;3.75;2.08;;;;;;;;;;4964940;28;20019;-86
2022/07/24 13:20:32;;;;;;;3.10;2.10;;;;;;;;;;4962837;28;20053;-87
2022/07/24 13:22:57;;;;;;;3.70;2.50;;;;;;;;;;4967453;28;20026;-85
2022/07/24 13:25:24;;;;;;;4.30;2.53;;;31.80;48.60;;;;;;4969607;28;20042;-84
2022/07/24 13:27:50;;;;;;;4.28;2.15;;;;;;;;;;4962328;28;20731;-86
2022/07/24 13:30:15;;;;;;;3.65;2.47;;;31.30;55.60;;;;;;4968811;28;20118;-85
2022/07/24 13:32:41;;;;;;;3.15;1.70;;;;;;;;;;4984219;28;20478;-87
2022/07/24 13:35:07;;;;;;;3.33;2.28;;;;;;;;;;4969046;28;20110;-84
2022/07/24 13:37:33;;;;;;;3.92;2.30;;;;;;;;;;4964337;28;20779;-84
2022/07/24 13:39:59;;;;;;;3.10;1.90;;;;;;;;;;4971568;28;20031;-85
2022/07/24 13:42:26;;;;;;;4.00;2.47;;;;;;;;;;4963569;28;20507;-85
2022/07/24 13:44:52;;;;;;;4.60;2.63;;;;;;;;;;4961190;28;20026;-85
2022/07/24 13:47:18;;;;;;;3.75;2.05;;;;;;;;;;4953810;28;20549;-84
2022/07/24 13:49:44;;;;;;;3.97;2.40;;;;;;;;;;4964364;28;20357;-84
2022/07/24 13:52:10;;;;;;;4.07;2.45;;;;;;;;;;4969153;28;20026;-85
2022/07/24 13:54:36;;;;;;;2.88;1.92;;;;;;;;;;4972991;28;20554;-84
2022/07/24 13:57:04;;;;;;;5.05;1.98;;;;;;;;;;4966973;28;20039;-84
2022/07/24 13:59:30;;;;;;;6.78;1.88;;;32.00;54.60;;;;;;4967909;28;20093;-83